Time;durP1;ratioP1;P1;durP2;ratioP2;P2;SDS_P1;SDS_P2;PMS_P1;PMS_P2;Temp;Humidity;BMP_temperature;BMP_pressure;BME280_temperature;BME280_humidity;BME280_pressure;Samples;Min_cycle;Max_cycle;Signal;HPM_P1;HPM_P2
2021/03/22 00:01:07;;;;;;;;;;;;;;;19.35;35.94;100115.75;5074005;28;956;-55
2021/03/22 00:03:32;;;;;;;;;;;;;;;19.55;35.95;100123.59;5076036;28;854;-54
2021/03/22 00:05:57;;;;;;;;;;;;;;;20.26;34.50;100125.81;5076439;28;839;-56
2021/03/22 00:08:23;;;;;;;;;;;;;;;20.21;34.37;100133.41;5076056;28;759;-56
2021/03/22 00:10:49;;;;;;;;;;;;;;;19.95;34.91;100136.78;5060313;28;1091;-56
2021/03/22 00:13:15;;;;;;;;;;;;;;;19.61;35.42;100138.06;5058933;28;843;-55
2021/03/22 00:15:41;;;;;;;;;;;;;;;19.25;36.14;100123.13;5056365;28;1995;-56
2021/03/22 00:18:07;;;;;;;;;;;;;;;19.88;34.99;100115.16;5062535;28;834;-55
2021/03/22 00:20:32;;;;;;;;;;;;;;;20.50;33.94;100114.44;5079454;28;779;-56
2021/03/22 00:22:58;;;;;;;;;;;;;;;19.95;34.85;100114.72;5080127;28;876;-57
2021/03/22 00:25:23;;;;;;;;;;;;;;;19.86;35.23;100116.59;5079998;28;870;-57
2021/03/22 00:27:49;;;;;;;;;;;;;;;19.33;36.07;100105.03;5080088;28;766;-56
2021/03/22 00:30:19;;;;;;;;;;;;;;;19.52;35.92;100090.28;5050161;28;997;-55
2021/03/22 00:32:45;;;;;;;;;;;;;;;20.42;34.11;100073.78;5025783;28;1155;-55
2021/03/22 00:35:10;;;;;;;;;;;;;;;20.16;34.46;100079.97;5059564;28;1918;-55
2021/03/22 00:37:35;;;;;;;;;;;;;;;20.08;34.69;100086.25;5059781;28;772;-55
2021/03/22 00:40:01;;;;;;;;;;;;;;;19.54;35.76;100068.75;5059785;28;768;-56
2021/03/22 00:42:26;;;;;;;;;;;;;;;19.45;36.11;100063.97;5059366;28;788;-56
2021/03/22 00:44:52;;;;;;;;;;;;;;;20.22;34.61;100068.81;5050119;28;1149;-55
2021/03/22 00:47:17;;;;;;;;;;;;;;;20.41;33.92;100061.13;5079460;28;771;-53
2021/03/22 00:49:43;;;;;;;;;;;;;;;20.03;34.74;100061.53;5079024;28;566;-57
2021/03/22 00:52:10;;;;;;;;;;;;;;;19.75;35.42;100053.34;5079241;28;752;-56
2021/03/22 00:54:37;;;;;;;;;;;;;;;19.13;36.46;100043.72;5079349;28;1984;-56
2021/03/22 00:57:03;;;;;;;;;;;;;;;19.61;35.73;100045.13;5079031;28;835;-57
2021/03/22 00:59:28;;;;;;;;;;;;;;;20.41;34.07;100036.28;5073830;28;963;-53
2021/03/22 01:01:54;;;;;;;;;;;;;;;20.20;34.46;100021.38;5059595;28;768;-48
2021/03/22 01:04:19;;;;;;;;;;;;;;;19.98;34.77;100012.81;5058839;28;764;-52
2021/03/22 01:06:44;;;;;;;;;;;;;;;19.65;35.54;100012.22;5059474;28;738;-51
2021/03/22 01:09:10;;;;;;;;;;;;;;;19.27;36.20;100002.34;5061179;28;1124;-53
2021/03/22 01:11:35;;;;;;;;;;;;;;;19.85;34.96;99990.81;5079072;28;724;-54
2021/03/22 01:14:01;;;;;;;;;;;;;;;20.64;33.80;99972.66;5077605;28;1976;-54
2021/03/22 01:16:33;;;;;;;;;;;;;;;20.03;34.76;99972.41;5058966;28;855;-52
2021/03/22 01:18:59;;;;;;;;;;;;;;;19.88;34.96;99965.34;5058625;28;841;-56
2021/03/22 01:21:27;;;;;;;;;;;;;;;19.41;35.70;99958.19;5058696;28;856;-55
2021/03/22 01:23:52;;;;;;;;;;;;;;;19.83;35.09;99942.28;5058473;28;779;-52
2021/03/22 01:26:19;;;;;;;;;;;;;;;20.49;33.80;99936.06;5040613;28;908;-51
2021/03/22 01:28:44;;;;;;;;;;;;;;;20.07;34.47;99930.06;5058553;28;811;-56
2021/03/22 01:31:10;;;;;;;;;;;;;;;20.03;34.80;99912.50;5077941;28;940;-55
2021/03/22 01:33:38;;;;;;;;;;;;;;;19.42;35.95;99914.88;5078004;28;1909;-55
2021/03/22 01:36:13;;;;;;;;;;;;;;;19.71;35.45;99914.41;5078578;28;756;-54
2021/03/22 01:38:38;;;;;;;;;;;;;;;20.55;33.80;99908.28;5078601;28;763;-54
2021/03/22 01:41:16;;;;;;;;;;;;;;;20.34;34.23;99890.38;5078336;28;739;-56
2021/03/22 01:43:41;;;;;;;;;;;;;;;19.96;34.72;99873.53;5078440;28;792;-55
2021/03/22 01:46:07;;;;;;;;;;;;;;;19.56;35.64;99878.97;5060041;28;998;-56
2021/03/22 01:48:32;;;;;;;;;;;;;;;19.06;36.58;99883.50;5057955;28;779;-53
2021/03/22 01:50:58;;;;;;;;;;;;;;;19.62;35.72;99870.25;5040062;28;884;-57
2021/03/22 01:53:23;;;;;;;;;;;;;;;20.33;34.10;99858.38;5040515;28;778;-55
2021/03/22 01:55:49;;;;;;;;;;;;;;;20.10;34.63;99846.63;5057923;28;1981;-56
2021/03/22 01:58:14;;;;;;;;;;;;;;;19.95;34.73;99834.09;5058237;28;862;-55
2021/03/22 02:00:40;;;;;;;;;;;;;;;19.55;35.54;99850.59;5072858;28;971;-51
2021/03/22 02:03:07;;;;;;;;;;;;;;;19.35;36.01;99857.47;5077749;28;786;-48
2021/03/22 02:05:33;;;;;;;;;;;;;;;20.12;34.79;99849.09;5060809;28;820;-49
2021/03/22 02:08:00;;;;;;;;;;;;;;;20.46;33.92;99850.28;5077969;28;815;-49
2021/03/22 02:10:26;;;;;;;;;;;;;;;20.02;34.80;99844.66;5047096;28;1203;-48
2021/03/22 02:12:51;;;;;;;;;;;;;;;19.75;35.08;99835.44;5058295;28;799;-51
2021/03/22 02:15:17;;;;;;;;;;;;;;;19.26;35.89;99831.78;5057394;28;1914;-55
2021/03/22 02:17:46;;;;;;;;;;;;;;;19.88;35.03;99806.16;5039568;28;815;-50
2021/03/22 02:20:31;;;;;;;;;;;;;;;20.65;33.76;99808.53;5039599;28;918;-50
2021/03/22 02:23:29;;;;;;;;;;;;;;;19.92;35.07;99800.78;5057090;28;1329;-50
2021/03/22 02:26:00;;;;;;;;;;;;;;;19.81;34.99;99790.06;5023770;28;1298;-51
2021/03/22 02:28:28;;;;;;;;;;;;;;;19.30;35.99;99814.28;5039571;28;909;-55
2021/03/22 02:31:13;;;;;;;;;;;;;;;19.47;36.03;99797.03;5074386;28;955;-53
2021/03/22 02:33:38;;;;;;;;;;;;;;;20.42;33.98;99781.09;5076890;28;1992;-54
2021/03/22 02:36:04;;;;;;;;;;;;;;;20.05;34.76;99799.88;5077112;28;785;-53
2021/03/22 02:38:33;;;;;;;;;;;;;;;19.98;35.02;99794.00;5077508;28;736;-53
2021/03/22 02:41:12;;;;;;;;;;;;;;;19.55;35.74;99797.41;5077005;28;775;-56
2021/03/22 02:43:38;;;;;;;;;;;;;;;19.67;35.45;99795.66;5077238;28;804;-51
2021/03/22 02:46:04;;;;;;;;;;;;;;;20.47;34.02;99799.47;5059152;28;959;-55
2021/03/22 02:48:29;;;;;;;;;;;;;;;20.29;34.18;99771.00;5056848;28;867;-54
2021/03/22 02:51:15;;;;;;;;;;;;;;;20.02;34.62;99770.16;5057289;28;759;-57
2021/03/22 02:53:46;;;;;;;;;;;;;;;19.73;35.28;99773.47;5025779;28;1909;-53
2021/03/22 02:56:31;;;;;;;;;;;;;;;19.13;36.39;99762.63;5057413;28;771;-54
2021/03/22 02:58:58;;;;;;;;;;;;;;;20.00;34.71;99758.63;5056839;28;1006;-54
2021/03/22 03:01:25;;;;;;;;;;;;;;;20.50;33.84;99749.91;5039104;28;776;-56
2021/03/22 03:03:50;;;;;;;;;;;;;;;20.13;34.67;99746.66;5039210;28;771;-56
2021/03/22 03:06:16;;;;;;;;;;;;;;;19.87;34.90;99765.91;5039471;28;768;-51
2021/03/22 03:08:41;;;;;;;;;;;;;;;19.34;36.03;99759.34;5038778;28;768;-52
2021/03/22 03:11:07;;;;;;;;;;;;;;;19.76;35.41;99754.31;5074957;28;1117;-57
2021/03/22 03:13:32;;;;;;;;;;;;;;;20.46;34.06;99761.94;5076991;28;1967;-54
2021/03/22 03:15:58;;;;;;;;;;;;;;;20.06;34.50;99749.03;5058842;28;947;-49
2021/03/22 03:18:24;;;;;;;;;;;;;;;20.04;34.74;99722.94;5056775;28;840;-56
2021/03/22 03:20:49;;;;;;;;;;;;;;;19.51;35.56;99724.72;5056625;28;851;-50
2021/03/22 03:23:14;;;;;;;;;;;;;;;19.39;36.11;99731.66;5056704;28;807;-57
2021/03/22 03:25:40;;;;;;;;;;;;;;;20.18;34.51;99726.34;5056364;28;751;-50
2021/03/22 03:28:06;;;;;;;;;;;;;;;20.38;34.04;99707.50;5038901;28;744;-52
2021/03/22 03:30:32;;;;;;;;;;;;;;;20.04;34.63;99704.41;5069780;28;920;-49
2021/03/22 03:32:58;;;;;;;;;;;;;;;19.92;35.00;99707.00;5058077;28;1135;-55
2021/03/22 03:35:24;;;;;;;;;;;;;;;19.38;36.15;99699.69;5076518;28;1910;-55
2021/03/22 03:37:50;;;;;;;;;;;;;;;19.82;35.36;99695.16;5076694;28;875;-54
2021/03/22 03:40:20;;;;;;;;;;;;;;;20.52;33.81;99692.41;5076038;28;779;-56
2021/03/22 03:42:45;;;;;;;;;;;;;;;20.12;34.66;99700.06;5076817;28;775;-53
2021/03/22 03:45:12;;;;;;;;;;;;;;;20.02;34.67;99708.63;5065361;28;954;-53
2021/03/22 03:47:38;;;;;;;;;;;;;;;19.58;35.50;99714.03;5055967;28;768;-53
2021/03/22 03:50:05;;;;;;;;;;;;;;;19.44;36.12;99705.88;5056518;28;818;-54
2021/03/22 03:52:30;;;;;;;;;;;;;;;20.22;34.65;99698.91;5056196;28;822;-53
2021/03/22 03:54:56;;;;;;;;;;;;;;;20.32;34.00;99699.38;5056182;28;1910;-54
2021/03/22 03:57:21;;;;;;;;;;;;;;;19.96;35.06;99691.41;5056535;28;831;-52
2021/03/22 03:59:47;;;;;;;;;;;;;;;19.62;35.51;99695.72;5056055;28;952;-56
2021/03/22 04:02:12;;;;;;;;;;;;;;;19.10;36.43;99699.91;5055952;28;735;-49
2021/03/22 04:04:38;;;;;;;;;;;;;;;20.01;35.02;99707.81;5056479;28;762;-49
2021/03/22 04:07:03;;;;;;;;;;;;;;;20.43;33.92;99694.34;5056193;28;873;-54
2021/03/22 04:09:28;;;;;;;;;;;;;;;20.05;34.86;99695.00;5056029;28;1112;-45
2021/03/22 04:11:54;;;;;;;;;;;;;;;20.00;34.58;99692.41;5055976;28;787;-45
2021/03/22 04:14:19;;;;;;;;;;;;;;;19.36;36.12;99685.41;5059672;28;1977;-45
2021/03/22 04:16:45;;;;;;;;;;;;;;;19.95;35.18;99685.09;5075840;28;780;-46
2021/03/22 04:19:10;;;;;;;;;;;;;;;20.61;33.86;99672.25;5075747;28;795;-48
2021/03/22 04:21:36;;;;;;;;;;;;;;;20.07;34.89;99669.84;5076431;28;776;-59
2021/03/22 04:24:02;;;;;;;;;;;;;;;20.06;34.62;99669.00;5075672;28;510;-60
2021/03/22 04:26:27;;;;;;;;;;;;;;;19.60;35.39;99657.44;5076235;28;736;-62
2021/03/22 04:28:52;;;;;;;;;;;;;;;19.08;36.40;99666.34;5076228;28;800;-55
2021/03/22 04:31:19;;;;;;;;;;;;;;;20.03;34.93;99655.88;5055533;28;963;-46
2021/03/22 04:33:45;;;;;;;;;;;;;;;20.69;33.48;99668.66;5055513;28;1910;-46
2021/03/22 04:36:11;;;;;;;;;;;;;;;20.15;34.47;99655.25;5056018;28;808;-49
2021/03/22 04:38:36;;;;;;;;;;;;;;;20.01;34.46;99663.69;5055552;28;926;-59
2021/03/22 04:41:02;;;;;;;;;;;;;;;19.55;35.64;99665.03;5055871;28;848;-46
2021/03/22 04:43:27;;;;;;;;;;;;;;;19.54;35.59;99657.91;5055842;28;804;-57
2021/03/22 04:45:53;;;;;;;;;;;;;;;20.38;34.21;99666.91;5071959;28;967;-47
2021/03/22 04:48:18;;;;;;;;;;;;;;;20.23;34.26;99662.72;5076146;28;803;-49
2021/03/22 04:50:43;;;;;;;;;;;;;;;19.96;34.90;99658.31;5057780;28;987;-53
2021/03/22 04:53:09;;;;;;;;;;;;;;;19.59;35.55;99660.50;5075503;28;748;-55
2021/03/22 04:55:34;;;;;;;;;;;;;;;19.26;35.98;99661.69;5075765;28;1967;-64
2021/03/22 04:58:00;;;;;;;;;;;;;;;19.93;34.86;99651.50;5076683;28;804;-50
2021/03/22 05:00:30;;;;;;;;;;;;;;;20.54;33.70;99649.81;5066099;28;970;-59
2021/03/22 05:02:56;;;;;;;;;;;;;;;20.05;34.46;99650.84;5041489;28;756;-61
2021/03/22 05:05:22;;;;;;;;;;;;;;;19.92;34.61;99649.06;5059070;28;903;-57
2021/03/22 05:07:47;;;;;;;;;;;;;;;19.52;35.52;99643.59;5058747;28;835;-58
2021/03/22 05:10:18;;;;;;;;;;;;;;;19.20;36.31;99642.88;5069766;28;1128;-58
2021/03/22 05:12:44;;;;;;;;;;;;;;;20.16;34.39;99648.56;5060631;28;849;-59
2021/03/22 05:15:09;;;;;;;;;;;;;;;20.47;33.83;99653.91;5067966;28;1914;-58
2021/03/22 05:17:35;;;;;;;;;;;;;;;19.98;34.69;99647.78;5058996;28;756;-52
2021/03/22 05:20:00;;;;;;;;;;;;;;;19.82;34.79;99644.66;5058746;28;808;-58
2021/03/22 05:22:26;;;;;;;;;;;;;;;19.39;35.90;99631.56;5058623;28;860;-56
2021/03/22 05:24:51;;;;;;;;;;;;;;;19.61;35.49;99622.38;5058876;28;808;-61
2021/03/22 05:27:16;;;;;;;;;;;;;;;20.40;34.05;99620.47;5058650;28;984;-58
2021/03/22 05:29:42;;;;;;;;;;;;;;;20.09;34.58;99621.47;5064969;28;939;-56
2021/03/22 05:32:30;;;;;;;;;;;;;;;19.90;34.68;99616.28;5078568;28;1067;-60
2021/03/22 05:34:55;;;;;;;;;;;;;;;19.32;35.71;99601.72;5061023;28;1917;-57
2021/03/22 05:37:21;;;;;;;;;;;;;;;19.42;35.86;99601.44;5060072;28;888;-63
2021/03/22 05:39:46;;;;;;;;;;;;;;;20.17;34.39;99606.03;5078459;28;779;-58
2021/03/22 05:42:17;;;;;;;;;;;;;;;20.88;33.03;99603.97;5078500;28;807;-60
2021/03/22 05:44:48;;;;;;;;;;;;;;;20.75;33.15;99584.50;5053237;28;1014;-59
2021/03/22 05:47:14;;;;;;;;;;;;;;;20.22;34.29;99589.31;5058347;28;787;-58
2021/03/22 05:49:39;;;;;;;;;;;;;;;19.88;34.79;99593.72;5058242;28;728;-56
2021/03/22 05:52:08;;;;;;;;;;;;;;;19.20;36.24;99583.06;5057947;28;906;-58
2021/03/22 05:54:45;;;;;;;;;;;;;;;19.44;35.81;99581.81;5041130;28;1969;-51
2021/03/22 05:57:50;;;;;;;;;;;;;;;20.40;33.94;99581.81;5040530;28;856;-58
2021/03/22 06:00:15;;;;;;;;;;;;;;;19.99;34.69;99591.44;5006723;28;1274;-63
2021/03/22 06:02:43;;;;;;;;;;;;;;;19.93;34.92;99587.22;5015910;28;757;-61
2021/03/22 06:05:17;;;;;;;;;;;;;;;19.44;35.83;99593.63;5044984;28;915;-63
2021/03/22 06:07:43;;;;;;;;;;;;;;;19.13;36.24;99586.28;5059769;28;863;-59
2021/03/22 06:10:11;;;;;;;;;;;;;;;20.09;34.51;99574.56;5048328;28;1100;-58
2021/03/22 06:12:39;;;;;;;;;;;;;;;20.57;33.54;99571.88;5040165;28;852;-61
2021/03/22 06:15:08;;;;;;;;;;;;;;;20.07;34.44;99570.50;5039430;28;1906;-64
2021/03/22 06:17:37;;;;;;;;;;;;;;;19.74;35.20;99573.72;5057716;28;748;-60
2021/03/22 06:20:03;;;;;;;;;;;;;;;19.27;36.03;99571.56;5039467;28;756;-63
2021/03/22 06:22:30;;;;;;;;;;;;;;;19.68;35.41;99564.78;5039307;28;828;-60
2021/03/22 06:24:56;;;;;;;;;;;;;;;20.47;33.99;99570.25;5057657;28;775;-61
2021/03/22 06:27:21;;;;;;;;;;;;;;;20.09;34.56;99574.56;5057640;28;791;-63
2021/03/22 06:29:47;;;;;;;;;;;;;;;19.89;34.89;99578.78;5046715;28;1003;-64
2021/03/22 06:32:14;;;;;;;;;;;;;;;19.54;35.75;99575.19;5077466;28;1214;-64
2021/03/22 06:34:42;;;;;;;;;;;;;;;19.27;36.24;99582.59;5059437;28;1976;-65
2021/03/22 06:37:18;;;;;;;;;;;;;;;19.95;35.05;99574.75;5076900;28;849;-65
2021/03/22 06:39:44;;;;;;;;;;;;;;;20.36;33.89;99580.84;5077099;28;870;-63
2021/03/22 06:42:17;;;;;;;;;;;;;;;19.93;35.04;99576.19;5076974;28;847;-57
2021/03/22 06:44:42;;;;;;;;;;;;;;;19.59;35.48;99567.56;5069909;28;978;-53
2021/03/22 06:47:11;;;;;;;;;;;;;;;19.40;35.95;99562.34;5057549;28;871;-57
2021/03/22 06:49:37;;;;;;;;;;;;;;;19.38;35.97;99561.88;5057277;28;732;-57
2021/03/22 06:52:04;;;;;;;;;;;;;;;20.27;34.25;99564.31;5057040;28;808;-58
2021/03/22 06:54:37;;;;;;;;;;;;;;;20.35;33.91;99552.41;5057095;28;1910;-48
2021/03/22 06:57:11;;;;;;;;;;;;;;;19.99;34.70;99547.28;5058221;28;904;-48
2021/03/22 06:59:37;;;;;;;;;;;;;;;19.73;35.24;99556.38;5063892;28;928;-52
2021/03/22 07:02:22;;;;;;;;;;;;;;;19.19;36.27;99548.38;5070334;28;868;-47
2021/03/22 07:04:47;;;;;;;;;;;;;;;20.25;34.28;99535.41;5055497;28;802;-56
2021/03/22 07:07:13;;;;;;;;;;;;;;;20.31;34.13;99539.59;5087506;28;867;-58
2021/03/22 07:09:40;;;;;;;;;;;;;;;19.83;35.25;99524.91;5083625;28;952;-55
2021/03/22 07:12:05;;;;;;;;;;;;;;;19.71;35.17;99520.03;5054740;28;868;-47
2021/03/22 07:14:32;;;;;;;;;;;;;;;19.17;36.33;99511.22;5057991;28;1906;-54
2021/03/22 07:17:04;;;;;;;;;;;;;;;20.09;34.55;99504.75;5069589;28;884;-58
2021/03/22 07:19:30;;;;;;;;;;;;;;;20.31;34.29;99509.22;5068528;28;944;-50
2021/03/22 07:21:59;;;;;;;;;;;;;;;20.00;34.63;99504.78;5055181;28;927;-58
2021/03/22 07:24:31;;;;;;;;;;;;;;;19.78;35.24;99492.78;5054144;28;880;-61
2021/03/22 07:26:56;;;;;;;;;;;;;;;19.26;36.34;99498.28;5066154;28;821;-57
2021/03/22 07:29:31;;;;;;;;;;;;;;;19.61;35.72;99493.56;5087370;28;883;-60
2021/03/22 07:32:15;;;;;;;;;;;;;;;20.42;33.85;99504.16;5085542;28;1109;-59
2021/03/22 07:34:44;;;;;;;;;;;;;;;20.08;34.76;99509.47;5083213;28;1918;-59
2021/03/22 07:37:31;;;;;;;;;;;;;;;19.99;34.82;99505.91;5082335;28;828;-59
2021/03/22 07:40:02;;;;;;;;;;;;;;;19.42;35.79;99507.72;5090015;28;800;-59
2021/03/22 07:42:43;;;;;;;;;;;;;;;19.19;36.37;99500.72;5050309;28;861;-58
2021/03/22 07:45:11;;;;;;;;;;;;;;;20.22;34.53;99497.44;5081188;28;836;-50
2021/03/22 07:47:44;;;;;;;;;;;;;;;20.76;33.53;99507.94;5075351;28;887;-61
2021/03/22 07:50:22;;;;;;;;;;;;;;;20.11;34.61;99505.25;5057131;28;938;-58
2021/03/22 07:53:08;;;;;;;;;;;;;;;19.72;35.14;99510.63;5087799;28;871;-53
2021/03/22 07:55:33;;;;;;;;;;;;;;;19.30;36.20;99505.56;5075940;28;1910;-54
2021/03/22 07:58:19;;;;;;;;;;;;;;;20.13;34.50;99497.44;5075171;28;867;-58
2021/03/22 08:01:03;;;;;;;;;;;;;;;20.43;33.87;99501.06;5070679;28;1771;-60
2021/03/22 08:03:31;;;;;;;;;;;;;;;19.97;34.74;99497.16;5075696;28;748;-52
2021/03/22 08:05:59;;;;;;;;;;;;;;;19.65;35.46;99491.00;5057962;28;775;-56
2021/03/22 08:08:31;;;;;;;;;;;;;;;19.31;36.06;99487.13;5075463;28;787;-60
2021/03/22 08:11:15;;;;;;;;;;;;;;;19.70;35.37;99490.84;5075620;28;1084;-60
2021/03/22 08:13:45;;;;;;;;;;;;;;;20.61;33.48;99495.50;5073312;28;1933;-58
2021/03/22 08:16:21;;;;;;;;;;;;;;;20.20;34.35;99499.69;5075956;28;1057;-59
2021/03/22 08:18:50;;;;;;;;;;;;;;;20.01;34.63;99506.41;5075866;28;763;-55
2021/03/22 08:21:18;;;;;;;;;;;;;;;19.37;35.97;99499.59;5057475;28;824;-62
2021/03/22 08:23:44;;;;;;;;;;;;;;;19.97;34.97;99495.19;5057986;28;791;-58
2021/03/22 08:26:17;;;;;;;;;;;;;;;20.79;33.46;99496.22;5075929;28;733;-56
2021/03/22 08:29:01;;;;;;;;;;;;;;;20.13;34.49;99497.44;5072316;28;883;-60
2021/03/22 08:31:40;;;;;;;;;;;;;;;19.86;34.82;99493.91;5055683;28;1076;-58
2021/03/22 08:34:24;;;;;;;;;;;;;;;19.23;36.26;99482.41;5040352;28;1906;-56
2021/03/22 08:36:49;;;;;;;;;;;;;;;19.99;34.99;99490.19;5059365;28;808;-58
2021/03/22 08:39:15;;;;;;;;;;;;;;;20.64;33.49;99486.53;5059357;28;764;-64
2021/03/22 08:41:51;;;;;;;;;;;;;;;19.93;34.96;99460.31;5059168;28;789;-58
2021/03/22 08:44:25;;;;;;;;;;;;;;;19.82;35.17;99454.34;5041402;28;1030;-51
2021/03/22 08:46:57;;;;;;;;;;;;;;;19.28;35.84;99468.47;5059555;28;830;-58
2021/03/22 08:49:41;;;;;;;;;;;;;;;20.21;34.40;99482.78;5041323;28;772;-56
2021/03/22 08:52:07;;;;;;;;;;;;;;;20.32;34.16;99480.50;5058950;28;765;-58
2021/03/22 08:54:34;;;;;;;;;;;;;;;20.01;34.42;99489.84;5041058;28;1918;-64
2021/03/22 08:57:02;;;;;;;;;;;;;;;19.80;35.10;99478.69;5040558;28;828;-57
2021/03/22 08:59:27;;;;;;;;;;;;;;;19.16;36.58;99482.88;5046013;28;936;-67
2021/03/22 09:01:53;;;;;;;;;;;;;;;20.14;34.63;99469.50;5061107;28;763;-62
2021/03/22 09:04:21;;;;;;;;;;;;;;;20.55;33.50;99460.91;5060671;28;1231;-54
2021/03/22 09:06:57;;;;;;;;;;;;;;;20.00;34.58;99452.34;5057845;28;915;-64
2021/03/22 09:09:25;;;;;;;;;;;;;;;19.78;34.95;99453.34;5044732;28;1081;-57
2021/03/22 09:11:51;;;;;;;;;;;;;;;19.06;36.71;99445.44;5059784;28;904;-64
2021/03/22 09:14:16;;;;;;;;;;;;;;;19.98;35.02;99454.63;5039180;28;1988;-64
2021/03/22 09:16:48;;;;;;;;;;;;;;;20.63;33.29;99449.00;5058605;28;520;-58
2021/03/22 09:19:14;;;;;;;;;;;;;;;19.98;34.59;99449.91;5058251;28;835;-58
2021/03/22 09:21:40;;;;;;;;;;;;;;;19.76;35.21;99450.09;5058306;28;839;-60
2021/03/22 09:24:24;;;;;;;;;;;;;;;19.17;36.33;99451.44;5058666;28;751;-61
2021/03/22 09:27:06;;;;;;;;;;;;;;;19.95;34.98;99442.31;5058347;28;780;-59
2021/03/22 09:29:35;;;;;;;;;;;;;;;20.73;33.41;99443.13;5045684;28;1229;-59
2021/03/22 09:32:01;;;;;;;;;;;;;;;20.10;34.46;99429.09;5078521;28;1155;-59
2021/03/22 09:34:34;;;;;;;;;;;;;;;19.76;35.03;99445.41;5061796;28;1906;-64
2021/03/22 09:37:04;;;;;;;;;;;;;;;19.18;36.44;99430.19;5040464;28;797;-59
2021/03/22 09:39:30;;;;;;;;;;;;;;;19.90;34.83;99445.22;5055178;28;1029;-59
2021/03/22 09:41:55;;;;;;;;;;;;;;;20.71;33.49;99450.94;5057763;28;800;-62
2021/03/22 09:44:21;;;;;;;;;;;;;;;19.98;34.75;99458.19;5061449;28;998;-61
2021/03/22 09:46:47;;;;;;;;;;;;;;;20.00;34.89;99446.81;5060436;28;767;-61
2021/03/22 09:49:14;;;;;;;;;;;;;;;19.32;35.68;99442.69;5050243;28;999;-67
2021/03/22 09:51:44;;;;;;;;;;;;;;;19.95;34.68;99452.50;5039101;28;892;-62
2021/03/22 09:54:29;;;;;;;;;;;;;;;20.55;33.67;99452.63;5057225;28;1911;-66
2021/03/22 09:57:11;;;;;;;;;;;;;;;19.95;34.68;99452.50;5055747;28;797;-63
2021/03/22 09:59:39;;;;;;;;;;;;;;;19.62;35.04;99453.06;5054888;28;865;-62
2021/03/22 10:02:23;;;;;;;;;;;;;;;19.34;35.83;99445.13;5060227;28;1150;-63
2021/03/22 10:05:08;;;;;;;;;;;;;;;20.33;34.10;99457.28;5063605;28;879;-64
2021/03/22 10:07:34;;;;;;;;;;;;;;;20.37;33.75;99469.28;5044088;28;908;-59
2021/03/22 10:10:00;;;;;;;;;;;;;;;19.89;34.87;99462.13;5050255;28;1302;-58
2021/03/22 10:12:30;;;;;;;;;;;;;;;19.44;35.47;99480.63;5047288;28;832;-58
2021/03/22 10:15:05;;;;;;;;;;;;;;;19.73;35.16;99490.19;5055781;28;1910;-59
2021/03/22 10:17:33;;;;;;;;;;;;;;;20.57;33.60;99480.72;5049820;28;817;-62
2021/03/22 10:20:11;;;;;;;;;;;;;;;20.12;34.33;99485.59;5073285;28;817;-60
2021/03/22 10:22:38;;;;;;;;;;;;;;;20.07;34.35;99485.75;5040868;28;911;-61
2021/03/22 10:25:18;;;;;;;;;;;;;;;19.28;35.79;99479.50;5055619;28;831;-61
2021/03/22 10:27:44;;;;;;;;;;;;;;;19.97;34.73;99495.19;5073329;28;828;-60
2021/03/22 10:30:27;;;;;;;;;;;;;;;20.77;33.27;99484.72;5063994;28;947;-59
2021/03/22 10:32:55;;;;;;;;;;;;;;;19.92;34.67;99461.44;5038847;28;1195;-59
2021/03/22 10:35:21;;;;;;;;;;;;;;;19.76;34.80;99459.19;5057226;28;1969;-58
2021/03/22 10:37:48;;;;;;;;;;;;;;;19.19;35.95;99464.91;5038916;28;976;-62
2021/03/22 10:40:24;;;;;;;;;;;;;;;20.07;34.41;99444.38;5039288;28;988;-61
2021/03/22 10:42:50;;;;;;;;;;;;;;;20.47;33.46;99430.25;5039532;28;819;-54
2021/03/22 10:45:24;;;;;;;;;;;;;;;20.05;34.24;99424.59;5050584;28;1358;-56
2021/03/22 10:47:50;;;;;;;;;;;;;;;19.71;35.02;99406.16;5076834;28;838;-59
2021/03/22 10:50:18;;;;;;;;;;;;;;;19.41;35.55;99412.34;5077040;28;819;-58
2021/03/22 10:52:44;;;;;;;;;;;;;;;20.39;33.90;99392.44;5077251;28;748;-58
2021/03/22 10:55:23;;;;;;;;;;;;;;;20.46;33.52;99386.41;5076516;28;1961;-61
2021/03/22 10:57:49;;;;;;;;;;;;;;;20.10;34.49;99393.22;5076860;28;814;-59
2021/03/22 11:00:31;;;;;;;;;;;;;;;19.70;35.12;99388.78;5048257;28;978;-59
2021/03/22 11:02:57;;;;;;;;;;;;;;;19.58;35.42;99385.91;5038842;28;908;-63
2021/03/22 11:05:27;;;;;;;;;;;;;;;20.45;34.08;99371.78;5050235;28;930;-58
2021/03/22 11:07:53;;;;;;;;;;;;;;;20.24;34.22;99349.66;5056552;28;796;-53
2021/03/22 11:10:19;;;;;;;;;;;;;;;19.89;34.96;99360.03;5046605;28;1128;-58
2021/03/22 11:12:45;;;;;;;;;;;;;;;19.35;36.06;99364.06;5056711;28;892;-56
2021/03/22 11:15:21;;;;;;;;;;;;;;;19.80;35.08;99363.63;5065557;28;1905;-66
2021/03/22 11:17:47;;;;;;;;;;;;;;;20.74;33.46;99359.13;5057257;28;900;-60
2021/03/22 11:20:14;;;;;;;;;;;;;;;20.21;34.36;99355.84;5038766;28;917;-59
2021/03/22 11:22:40;;;;;;;;;;;;;;;19.94;34.79;99349.63;5075922;28;889;-56
2021/03/22 11:25:24;;;;;;;;;;;;;;;19.40;35.63;99369.38;5055265;28;915;-54
2021/03/22 11:27:56;;;;;;;;;;;;;;;20.15;34.58;99360.75;5055628;28;932;-53
2021/03/22 11:30:32;;;;;;;;;;;;;;;20.80;33.04;99356.97;5066727;28;887;-59
2021/03/22 11:32:58;;;;;;;;;;;;;;;20.09;34.59;99352.97;5057862;28;1052;-60
2021/03/22 11:35:24;;;;;;;;;;;;;;;19.86;35.01;99355.19;5076269;28;1905;-58
2021/03/22 11:37:54;;;;;;;;;;;;;;;19.28;36.15;99355.47;5076098;28;863;-62
2021/03/22 11:40:20;;;;;;;;;;;;;;;20.04;34.58;99362.25;5074639;28;922;-63
2021/03/22 11:42:51;;;;;;;;;;;;;;;20.81;33.24;99356.63;5055905;28;924;-60
2021/03/22 11:45:23;;;;;;;;;;;;;;;20.07;34.53;99361.59;5064352;28;955;-58
2021/03/22 11:47:49;;;;;;;;;;;;;;;19.85;34.94;99354.38;5055734;28;755;-46
2021/03/22 11:50:33;;;;;;;;;;;;;;;19.34;36.12;99356.91;5056152;28;772;-60
2021/03/22 11:53:01;;;;;;;;;;;;;;;19.99;34.86;99354.97;5068929;28;951;-57
2021/03/22 11:55:38;;;;;;;;;;;;;;;20.72;33.43;99347.59;5073858;28;1975;-58
2021/03/22 11:58:03;;;;;;;;;;;;;;;21.24;32.50;99346.34;5076034;28;906;-59
2021/03/22 12:00:38;;;;;;;;;;;;;;;20.58;33.41;99330.44;5042239;28;925;-65
2021/03/22 12:03:08;;;;;;;;;;;;;;;20.25;34.33;99309.88;5055939;28;756;-67
2021/03/22 12:05:34;;;;;;;;;;;;;;;19.55;35.56;99323.16;5054952;28;924;-63
2021/03/22 12:07:59;;;;;;;;;;;;;;;19.90;35.07;99337.66;5058684;28;855;-57
2021/03/22 12:10:29;;;;;;;;;;;;;;;20.74;33.39;99330.69;5054283;28;1092;-58
2021/03/22 12:12:55;;;;;;;;;;;;;;;20.48;33.71;99342.69;5077992;28;876;-58
2021/03/22 12:15:21;;;;;;;;;;;;;;;20.20;34.22;99359.72;5066700;28;1921;-50
2021/03/22 12:18:06;;;;;;;;;;;;;;;19.65;35.17;99350.34;5058670;28;1184;-59
2021/03/22 12:20:32;;;;;;;;;;;;;;;19.87;35.22;99374.16;5059119;28;1411;-60
2021/03/22 12:22:58;;;;;;;;;;;;;;;20.79;33.52;99400.34;5059842;28;792;-60
2021/03/22 12:25:27;;;;;;;;;;;;;;;20.16;34.32;99389.13;5059365;28;936;-58
2021/03/22 12:27:53;;;;;;;;;;;;;;;20.06;34.42;99392.28;5058486;28;885;-60
2021/03/22 12:30:19;;;;;;;;;;;;;;;19.49;35.55;99391.44;5071044;28;936;-58
2021/03/22 12:32:44;;;;;;;;;;;;;;;19.85;34.95;99400.47;5076953;28;1080;-58
2021/03/22 12:35:13;;;;;;;;;;;;;;;20.73;33.25;99384.31;5041092;28;1974;-59
2021/03/22 12:37:40;;;;;;;;;;;;;;;20.20;34.40;99395.63;5059356;28;807;-60
2021/03/22 12:40:06;;;;;;;;;;;;;;;20.13;34.53;99409.94;5077557;28;862;-60
2021/03/22 12:42:31;;;;;;;;;;;;;;;19.54;35.42;99401.47;5068800;28;876;-51
2021/03/22 12:44:57;;;;;;;;;;;;;;;19.72;35.16;99392.03;5049725;28;960;-53
2021/03/22 12:47:29;;;;;;;;;;;;;;;20.60;33.47;99391.69;5075280;28;893;-50
2021/03/22 12:49:54;;;;;;;;;;;;;;;20.20;34.18;99392.06;5059641;28;1161;-56
2021/03/22 12:52:20;;;;;;;;;;;;;;;20.05;34.46;99394.22;5064508;28;856;-59
2021/03/22 12:54:45;;;;;;;;;;;;;;;19.58;35.15;99380.38;5044910;28;1980;-49
2021/03/22 12:57:15;;;;;;;;;;;;;;;19.60;35.37;99391.88;5063808;28;885;-49
2021/03/22 12:59:40;;;;;;;;;;;;;;;20.57;33.69;99386.84;5047344;28;835;-49
2021/03/22 13:02:12;;;;;;;;;;;;;;;20.41;33.83;99372.78;5047666;28;873;-59
2021/03/22 13:04:37;;;;;;;;;;;;;;;20.10;34.40;99369.19;5069212;28;861;-51
2021/03/22 13:07:03;;;;;;;;;;;;;;;19.76;34.80;99376.44;5062485;28;888;-57
2021/03/22 13:09:28;;;;;;;;;;;;;;;19.51;35.45;99391.13;5063341;28;1155;-65
2021/03/22 13:11:53;;;;;;;;;;;;;;;20.26;34.35;99379.66;5079007;28;744;-57
2021/03/22 13:14:19;;;;;;;;;;;;;;;20.38;34.06;99396.34;5073468;28;1971;-57